Terminal Aerodrome Forecast
Issued by NWS

Home | Current Version | Previous Version | Text Only | Print | Product List | Glossary On
Versions: 1 2 3 4 5 6 7 8 9 10 11 12 13 14 15 16 17
000
FTUS41 KCAR 221100
TAFPQI
TAF
KPQI 221120Z 2212/2312 02006KT P6SM BKN110
     FM221500 04010KT P6SM BKN060
     FM222100 05014KT 3SM -RA OVC020
     FM230300 05012KT P6SM OVC015
      AMD LTD TO CLD VIS AND WIND=

USA.gov is the U.S. government's official web portal to all federal, state and local government web resources and services.